CheckWX is a tool to help pilots better visualize weather data.  It is not intended as a substitute for an official pre-flight weather briefing.

06:17:31 UTC

ETHS METAR
Fassberg Airport
Germany
Current

58 mins ago

ETHS 080520Z 24019G30KT 9999 BKN027 08/03 Q1002 BLU
Observed
Dec-8 @ 05:20 UTC
Wind
  • 240° at 19 KTS
  • Gusting to 30 KTS
Visibility
10,000+ meters
Flight Rules
MVFR
Cloud Levels
  • Broken at 2,700' AGL
Temperature
C / 46°F
Dewpoint
C / 37°F
Humidity
71%
Altimeter
29.59" Hg
Pressure
1001.92 hPa
Previous

2 hours ago

ETHS 080420Z 24016KT 9999 BKN025 08/04 Q1003 BLU
Observed
Dec-8 @ 04:20 UTC
Wind
  • 240° at 16 KTS
Visibility
10,000+ meters
Flight Rules
MVFR
Cloud Levels
  • Broken at 2,500' AGL
Temperature
C / 46°F
Dewpoint
C / 39°F
Humidity
76%
Altimeter
29.62" Hg
Pressure
1002.92 hPa
Previous

3 hours ago

ETHS 080320Z 24017KT 9999 BKN028 08/04 Q1004 BLU
Observed
Dec-8 @ 03:20 UTC
Wind
  • 240° at 17 KTS
Visibility
10,000+ meters
Flight Rules
MVFR
Cloud Levels
  • Broken at 2,800' AGL
Temperature
C / 46°F
Dewpoint
C / 39°F
Humidity
76%
Altimeter
29.65" Hg
Pressure
1003.92 hPa